createdAt,value
2018-07-24T00:01:41.737Z,101208.50
2018-07-24T00:04:10.426Z,101213.36
2018-07-24T00:06:39.144Z,101213.07
2018-07-24T00:09:09.003Z,101206.54
2018-07-24T00:11:37.945Z,101210.28
2018-07-24T00:14:07.016Z,101209.99
2018-07-24T00:16:35.701Z,101208.05
2018-07-24T00:19:04.852Z,101212.66
2018-07-24T00:21:33.544Z,101213.72
2018-07-24T00:24:03.087Z,101204.20
2018-07-24T00:26:31.703Z,101206.91
2018-07-24T00:29:00.352Z,101209.57
2018-07-24T00:31:29.029Z,101210.64
2018-07-24T00:33:58.039Z,101211.94
2018-07-24T00:36:26.705Z,101214.27
2018-07-24T00:38:56.121Z,101207.10
2018-07-24T00:41:24.858Z,101208.70
2018-07-24T00:43:53.493Z,101203.00
2018-07-24T00:46:22.556Z,101198.92
2018-07-24T00:48:51.280Z,101200.52
2018-07-24T00:51:19.913Z,101198.28
2018-07-24T00:53:48.548Z,101201.95
2018-07-24T00:56:17.231Z,101202.59
2018-07-24T00:58:45.900Z,101204.67
2018-07-24T01:01:14.923Z,101209.53
2018-07-24T01:03:43.907Z,101201.11
2018-07-24T01:06:12.564Z,101200.17
2018-07-24T01:08:41.209Z,101196.61
2018-07-24T01:11:09.795Z,101196.61
2018-07-24T01:13:38.784Z,101194.95
2018-07-24T01:16:07.401Z,101195.43
2018-07-24T01:18:36.129Z,101192.16
2018-07-24T01:21:04.977Z,101191.56
2018-07-24T01:23:33.997Z,101194.82
2018-07-24T01:26:02.776Z,101194.29
2018-07-24T01:28:31.448Z,101197.24
2018-07-24T01:31:00.159Z,101191.48
2018-07-24T01:33:29.254Z,101194.92
2018-07-24T01:35:57.981Z,101208.20
2018-07-24T01:38:27.283Z,101194.78
2018-07-24T01:40:55.981Z,101197.20
2018-07-24T01:43:24.868Z,101195.55
2018-07-24T01:45:53.620Z,101199.92
2018-07-24T01:48:22.827Z,101189.32
2018-07-24T01:50:51.742Z,101188.67
2018-07-24T01:53:20.538Z,101194.34
2018-07-24T01:55:49.852Z,101192.43
2018-07-24T01:58:18.566Z,101191.25
2018-07-24T02:00:47.261Z,101190.93
2018-07-24T02:03:15.962Z,101187.09
2018-07-24T02:05:44.909Z,101188.98
2018-07-24T02:08:13.567Z,101184.70
2018-07-24T02:10:42.295Z,101183.92
2018-07-24T02:13:11.511Z,101187.23
2018-07-24T02:15:40.583Z,101176.06
2018-07-24T02:18:09.516Z,101185.49
2018-07-24T02:20:38.199Z,101182.19
2018-07-24T02:23:06.936Z,101180.77
2018-07-24T02:25:35.891Z,101181.30
2018-07-24T02:28:04.769Z,101180.69
2018-07-24T02:30:33.767Z,101181.39
2018-07-24T02:33:02.459Z,101180.86
2018-07-24T02:35:31.145Z,101182.16
2018-07-24T02:37:59.838Z,101184.28
2018-07-24T02:40:28.823Z,101177.48
2018-07-24T02:42:57.556Z,101177.78
2018-07-24T02:45:26.306Z,101181.09
2018-07-24T02:47:55.390Z,101182.63
2018-07-24T02:50:24.087Z,101180.65
2018-07-24T02:52:53.016Z,101187.20
2018-07-24T02:55:21.766Z,101182.33
2018-07-24T02:57:50.439Z,101183.42
2018-07-24T03:00:19.480Z,101183.07
2018-07-24T03:02:48.211Z,101182.71
2018-07-24T03:05:17.144Z,101188.28
2018-07-24T03:07:45.835Z,101192.63
2018-07-24T03:10:14.827Z,101186.30
2018-07-24T03:12:43.851Z,101190.58
2018-07-24T03:15:12.629Z,101191.28
2018-07-24T03:17:41.402Z,101195.55
2018-07-24T03:20:10.626Z,101194.43
2018-07-24T03:22:39.308Z,101194.43
2018-07-24T03:25:08.046Z,101196.55
2018-07-24T03:27:36.870Z,101195.19
2018-07-24T03:30:06.375Z,101194.89
2018-07-24T03:32:35.572Z,101195.95
2018-07-24T03:35:04.433Z,101203.01
2018-07-24T03:37:33.182Z,101201.05
2018-07-24T03:40:01.970Z,101205.19
2018-07-24T03:42:30.678Z,101208.91
2018-07-24T03:44:59.831Z,101209.63
2018-07-24T03:47:28.674Z,101209.86
2018-07-24T03:49:57.351Z,101207.14
2018-07-24T03:52:26.065Z,101210.39
2018-07-24T03:54:54.798Z,101206.78
2018-07-24T03:57:23.550Z,101202.70
2018-07-24T03:59:52.579Z,101207.88
2018-07-24T04:02:21.603Z,101203.73
2018-07-24T04:04:50.294Z,101206.22
2018-07-24T04:07:19.033Z,101208.66
2018-07-24T04:09:48.145Z,101207.14
2018-07-24T04:12:17.644Z,101206.65
2018-07-24T04:14:46.505Z,101206.31
2018-07-24T04:17:15.291Z,101210.45
2018-07-24T04:19:44.110Z,101210.16
2018-07-24T04:22:12.938Z,101207.97
2018-07-24T04:24:41.967Z,101205.59
2018-07-24T04:27:11.416Z,101212.08
2018-07-24T04:29:40.464Z,101212.73
2018-07-24T04:32:09.293Z,101213.44
2018-07-24T04:34:38.345Z,101214.89
2018-07-24T04:37:07.134Z,101208.70
2018-07-24T04:39:36.180Z,101216.71
2018-07-24T04:42:04.991Z,101211.64
2018-07-24T04:44:34.359Z,101215.51
2018-07-24T04:47:03.017Z,101203.49
2018-07-24T04:49:31.722Z,101216.44
2018-07-24T04:52:00.461Z,101216.96
2018-07-24T04:54:29.097Z,101210.47
2018-07-24T04:56:57.861Z,101215.91
2018-07-24T04:59:26.636Z,101217.09
2018-07-24T05:01:55.663Z,101215.76
2018-07-24T05:04:24.362Z,101223.08
2018-07-24T05:06:53.293Z,101217.48
2018-07-24T05:09:22.305Z,101214.77
2018-07-24T05:11:51.032Z,101219.98
2018-07-24T05:14:20.265Z,101221.44
2018-07-24T05:16:48.956Z,101223.77
2018-07-24T05:19:18.021Z,101226.14
2018-07-24T05:21:47.514Z,101218.34
2018-07-24T05:24:16.171Z,101223.13
2018-07-24T05:26:44.823Z,101225.58
2018-07-24T05:29:13.507Z,101221.30
2018-07-24T05:31:42.850Z,101222.59
2018-07-24T05:34:11.802Z,101227.50
2018-07-24T05:36:40.457Z,101218.96
2018-07-24T05:39:10.974Z,101224.75
2018-07-24T05:41:39.617Z,101227.85
2018-07-24T05:44:08.669Z,101221.67
2018-07-24T05:46:37.331Z,101226.72
2018-07-24T05:49:06.507Z,101229.58
2018-07-24T05:51:35.261Z,101230.25
2018-07-24T05:54:03.942Z,101227.42
2018-07-24T05:56:32.722Z,101230.28
2018-07-24T05:59:01.614Z,101236.63
2018-07-24T06:01:30.348Z,101236.78
2018-07-24T06:03:59.038Z,101230.34
2018-07-24T06:06:27.748Z,101233.73
2018-07-24T06:08:56.435Z,101231.89
2018-07-24T06:11:25.059Z,101237.98
2018-07-24T06:13:54.037Z,101237.20
2018-07-24T06:16:22.694Z,101238.34
2018-07-24T06:18:51.618Z,101235.62
2018-07-24T06:21:20.681Z,101237.34
2018-07-24T06:23:49.445Z,101239.81
2018-07-24T06:26:18.437Z,101232.48
2018-07-24T06:28:47.431Z,101239.92
2018-07-24T06:31:16.628Z,101238.11
2018-07-24T06:33:45.724Z,101235.25
2018-07-24T06:36:14.384Z,101234.66
2018-07-24T06:38:43.010Z,101237.30
2018-07-24T06:41:13.126Z,101236.39
2018-07-24T06:43:42.066Z,101230.88
2018-07-24T06:46:10.794Z,101236.84
2018-07-24T06:48:39.454Z,101239.55
2018-07-24T06:51:08.359Z,101238.95
2018-07-24T06:53:37.461Z,101236.45
2018-07-24T06:56:06.422Z,101238.82
2018-07-24T06:58:35.355Z,101246.11
2018-07-24T07:01:04.972Z,101243.94
2018-07-24T07:03:34.873Z,101236.18
2018-07-24T07:06:04.152Z,101237.92
2018-07-24T07:08:33.790Z,101237.95
2018-07-24T07:11:02.496Z,101238.59
2018-07-24T07:13:31.512Z,101242.93
2018-07-24T07:16:00.151Z,101239.19
2018-07-24T07:18:29.039Z,101237.04
2018-07-24T07:20:58.051Z,101232.95
2018-07-24T07:23:27.444Z,101231.33
2018-07-24T07:25:56.671Z,101231.59
2018-07-24T07:28:26.238Z,101244.71
2018-07-24T07:30:55.042Z,101243.05
2018-07-24T07:33:23.984Z,101245.80
2018-07-24T07:35:52.615Z,101241.45
2018-07-24T07:38:21.346Z,101243.64
2018-07-24T07:40:50.740Z,101241.96
2018-07-24T07:43:21.400Z,101238.67
2018-07-24T07:45:50.658Z,101236.77
2018-07-24T07:48:20.008Z,101232.40
2018-07-24T07:50:49.020Z,101223.89
2018-07-24T07:53:17.737Z,101220.88
2018-07-24T07:55:47.190Z,101222.55
2018-07-24T07:58:16.052Z,101223.64
2018-07-24T08:00:44.772Z,101229.42
2018-07-24T08:03:13.797Z,101228.03
2018-07-24T08:05:43.409Z,101221.46
2018-07-24T08:08:12.414Z,101230.17
2018-07-24T08:10:41.175Z,101228.78
2018-07-24T08:13:11.114Z,101223.50
2018-07-24T08:15:39.807Z,101222.58
2018-07-24T08:18:08.620Z,101229.05
2018-07-24T08:20:37.327Z,101228.30
2018-07-24T08:23:06.274Z,101221.85
2018-07-24T08:25:35.059Z,101217.80
2018-07-24T08:28:03.756Z,101211.05
2018-07-24T08:30:32.532Z,101216.19
2018-07-24T08:33:01.495Z,101209.75
2018-07-24T08:35:30.210Z,101203.77
2018-07-24T08:37:59.759Z,101205.06
2018-07-24T08:40:28.583Z,101206.27
2018-07-24T08:42:57.490Z,101201.25
2018-07-24T08:45:29.086Z,101193.17
2018-07-24T08:47:57.923Z,101199.34
2018-07-24T08:50:27.334Z,101195.84
2018-07-24T08:52:57.438Z,101186.21
2018-07-24T08:55:26.909Z,101193.23
2018-07-24T08:57:55.906Z,101202.34
2018-07-24T09:00:24.891Z,101194.44
2018-07-24T09:02:53.746Z,101187.84
2018-07-24T09:05:22.456Z,101186.19
2018-07-24T09:07:51.302Z,101184.95
2018-07-24T09:10:20.575Z,101181.42
2018-07-24T09:12:54.590Z,101181.49
2018-07-24T09:15:23.473Z,101179.44
2018-07-24T09:17:52.965Z,101177.69
2018-07-24T09:20:22.050Z,101177.61
2018-07-24T09:22:51.373Z,101181.34
2018-07-24T09:25:20.670Z,101179.70
2018-07-24T09:27:49.384Z,101173.22
2018-07-24T09:30:18.350Z,101174.48
2018-07-24T09:32:46.994Z,101173.03
2018-07-24T09:35:15.734Z,101164.45
2018-07-24T09:37:44.439Z,101163.52
2018-07-24T09:40:13.123Z,101167.50
2018-07-24T09:42:42.332Z,101169.92
2018-07-24T09:45:11.093Z,101173.30
2018-07-24T09:47:40.002Z,101165.42
2018-07-24T09:50:09.473Z,101162.70
2018-07-24T09:52:38.168Z,101162.98
2018-07-24T09:55:06.813Z,101172.17
2018-07-24T09:57:36.059Z,101161.93
2018-07-24T10:00:06.066Z,101159.59
2018-07-24T10:02:34.732Z,101160.37
2018-07-24T10:05:05.068Z,101166.67
2018-07-24T10:07:34.097Z,101167.41
2018-07-24T10:10:02.799Z,101158.52
2018-07-24T10:12:31.545Z,101158.86
2018-07-24T10:15:00.539Z,101157.70
2018-07-24T10:17:29.988Z,101158.67
2018-07-24T10:19:58.597Z,101150.33
2018-07-24T10:22:27.303Z,101152.59
2018-07-24T10:24:56.529Z,101156.23
2018-07-24T10:27:25.189Z,101149.90
2018-07-24T10:29:53.827Z,101144.77
2018-07-24T10:32:22.810Z,101139.48
2018-07-24T10:34:51.710Z,101137.91
2018-07-24T10:37:21.166Z,101129.88
2018-07-24T10:39:50.101Z,101138.52
2018-07-24T10:42:19.604Z,101131.27
2018-07-24T10:44:48.570Z,101134.19
2018-07-24T10:47:17.309Z,101136.78
2018-07-24T10:49:45.990Z,101136.22
2018-07-24T10:52:15.451Z,101130.88
2018-07-24T10:54:44.110Z,101125.53
2018-07-24T10:57:13.424Z,101126.84
2018-07-24T10:59:42.974Z,101125.09
2018-07-24T11:02:12.333Z,101119.17
2018-07-24T11:04:40.986Z,101112.52
2018-07-24T11:07:09.680Z,101115.98
2018-07-24T11:09:38.369Z,101113.78
2018-07-24T11:12:07.519Z,101111.50
2018-07-24T11:14:36.594Z,101104.30
2018-07-24T11:17:05.507Z,101106.09
2018-07-24T11:19:34.259Z,101106.17
2018-07-24T11:22:03.103Z,101110.82
2018-07-24T11:24:32.259Z,101110.47
2018-07-24T11:27:01.009Z,101113.22
2018-07-24T11:29:29.970Z,101107.63
2018-07-24T11:31:58.625Z,101110.30
2018-07-24T11:34:27.774Z,101102.88
2018-07-24T11:36:56.487Z,101098.34
2018-07-24T11:39:25.556Z,101099.84
2018-07-24T11:41:54.181Z,101100.79
2018-07-24T11:44:22.923Z,101102.28
2018-07-24T11:46:51.710Z,101102.19
2018-07-24T11:49:20.386Z,101094.43
2018-07-24T11:51:49.069Z,101089.34
2018-07-24T11:54:18.389Z,101093.37
2018-07-24T11:56:47.050Z,101095.78
2018-07-24T11:59:15.800Z,101098.70
2018-07-24T12:01:44.501Z,101086.45
2018-07-24T12:04:13.166Z,101084.03
2018-07-24T12:06:42.240Z,101085.73
2018-07-24T12:09:12.863Z,101084.73
2018-07-24T12:11:42.086Z,101079.45
2018-07-24T12:14:11.070Z,101074.48
2018-07-24T12:16:40.120Z,101071.48
2018-07-24T12:19:09.088Z,101071.80
2018-07-24T12:21:37.803Z,101066.43
2018-07-24T12:24:06.901Z,101068.08
2018-07-24T12:26:35.557Z,101069.47
2018-07-24T12:29:04.578Z,101068.23
2018-07-24T12:31:33.671Z,101065.81
2018-07-24T12:34:02.325Z,101070.52
2018-07-24T12:36:31.094Z,101064.72
2018-07-24T12:38:59.734Z,101066.27
2018-07-24T12:41:28.454Z,101064.61
2018-07-24T12:43:57.105Z,101069.36
2018-07-24T12:46:26.135Z,101068.08
2018-07-24T12:48:54.907Z,101061.21
2018-07-24T12:51:23.575Z,101068.44
2018-07-24T12:53:52.597Z,101061.61
2018-07-24T12:56:21.313Z,101055.66
2018-07-24T12:58:50.035Z,101054.99
2018-07-24T13:01:18.897Z,101061.34
2018-07-24T13:03:47.585Z,101055.44
2018-07-24T13:06:16.507Z,101051.75
2018-07-24T13:08:45.197Z,101056.21
2018-07-24T13:11:13.828Z,101047.89
2018-07-24T13:13:42.539Z,101050.13
2018-07-24T13:16:11.562Z,101043.30
2018-07-24T13:18:40.318Z,101042.78
2018-07-24T13:21:09.005Z,101039.66
2018-07-24T13:23:37.656Z,101043.17
2018-07-24T13:26:06.377Z,101042.97
2018-07-24T13:28:35.306Z,101039.64
2018-07-24T13:31:04.089Z,101040.06
2018-07-24T13:33:32.879Z,101037.55
2018-07-24T13:36:01.824Z,101034.27
2018-07-24T13:38:30.822Z,101031.18
2018-07-24T13:40:59.529Z,101035.91
2018-07-24T13:43:30.146Z,101033.61
2018-07-24T13:45:59.751Z,101022.84
2018-07-24T13:48:28.454Z,101025.84
2018-07-24T13:50:57.143Z,101026.37
2018-07-24T13:53:26.753Z,101027.75
2018-07-24T13:55:55.519Z,101020.91
2018-07-24T13:58:24.407Z,101013.27
2018-07-24T14:00:53.548Z,101020.13
2018-07-24T14:03:22.399Z,101015.56
2018-07-24T14:05:51.059Z,101011.75
2018-07-24T14:08:19.960Z,101010.19
2018-07-24T14:10:48.924Z,101008.47
2018-07-24T14:13:17.655Z,101014.63
2018-07-24T14:15:46.329Z,101011.73
2018-07-24T14:18:15.246Z,101006.31
2018-07-24T14:20:44.517Z,101008.17
2018-07-24T14:23:13.483Z,101004.23
2018-07-24T14:25:42.127Z,100997.97
2018-07-24T14:28:10.774Z,101000.09
2018-07-24T14:30:39.986Z,100995.64
2018-07-24T14:33:08.786Z,100994.09
2018-07-24T14:35:37.611Z,100993.17
2018-07-24T14:38:06.537Z,100992.32
2018-07-24T14:40:35.875Z,100994.61
2018-07-24T14:43:04.775Z,100995.72
2018-07-24T14:45:33.890Z,100992.50
2018-07-24T14:48:02.620Z,100992.05
2018-07-24T14:50:31.308Z,100989.16
2018-07-24T14:53:00.031Z,100988.16
2018-07-24T14:55:28.963Z,100993.78
2018-07-24T14:57:57.965Z,100994.47
2018-07-24T15:00:26.983Z,100988.81
2018-07-24T15:02:55.664Z,100979.27
2018-07-24T15:05:24.908Z,100990.66
2018-07-24T15:07:54.036Z,100983.27
2018-07-24T15:10:22.665Z,100978.44
2018-07-24T15:12:51.339Z,100977.76
2018-07-24T15:15:20.034Z,100989.05
2018-07-24T15:17:48.962Z,100978.78
2018-07-24T15:20:17.844Z,100976.17
2018-07-24T15:22:52.914Z,100979.72
2018-07-24T15:25:21.611Z,100982.21
2018-07-24T15:27:50.390Z,100974.78
2018-07-24T15:30:19.367Z,100964.77
2018-07-24T15:32:48.215Z,100967.81
2018-07-24T15:35:16.947Z,100975.28
2018-07-24T15:37:45.719Z,100968.18
2018-07-24T15:40:14.454Z,100968.80
2018-07-24T15:42:43.523Z,100974.16
2018-07-24T15:45:12.850Z,100973.74
2018-07-24T15:47:41.821Z,100967.48
2018-07-24T15:50:10.545Z,100962.48
2018-07-24T15:52:39.222Z,100959.83
2018-07-24T15:55:08.355Z,100965.08
2018-07-24T15:57:37.370Z,100967.36
2018-07-24T16:00:06.391Z,100963.06
2018-07-24T16:02:35.194Z,100960.21
2018-07-24T16:05:03.982Z,100958.37
2018-07-24T16:07:32.970Z,100957.06
2018-07-24T16:10:02.258Z,100956.34
2018-07-24T16:12:31.127Z,100955.94
2018-07-24T16:15:00.117Z,100954.49
2018-07-24T16:17:28.785Z,100946.61
2018-07-24T16:19:57.541Z,100941.22
2018-07-24T16:22:27.019Z,100945.20
2018-07-24T16:24:56.006Z,100945.28
2018-07-24T16:27:24.807Z,100944.29
2018-07-24T16:29:53.546Z,100944.09
2018-07-24T16:32:22.567Z,100946.14
2018-07-24T16:34:51.674Z,100939.04
2018-07-24T16:37:20.455Z,100939.15
2018-07-24T16:39:49.302Z,100933.38
2018-07-24T16:42:18.017Z,100932.05
2018-07-24T16:44:46.792Z,100932.19
2018-07-24T16:47:15.793Z,100931.22
2018-07-24T16:49:45.409Z,100923.03
2018-07-24T16:52:14.151Z,100925.03
2018-07-24T16:54:42.868Z,100924.21
2018-07-24T16:57:11.792Z,100925.92
2018-07-24T16:59:40.519Z,100925.46
2018-07-24T17:02:09.805Z,100924.97
2018-07-24T17:04:38.748Z,100922.88
2018-07-24T17:07:07.402Z,100925.41
2018-07-24T17:09:36.268Z,100925.17
2018-07-24T17:12:05.132Z,100922.48
2018-07-24T17:14:34.787Z,100922.88
2018-07-24T17:17:03.564Z,100919.11
2018-07-24T17:19:33.859Z,100915.61
2018-07-24T17:22:02.827Z,100921.45
2018-07-24T17:24:31.604Z,100914.67
2018-07-24T17:27:00.946Z,100917.75
2018-07-24T17:29:29.677Z,100918.07
2018-07-24T17:31:58.354Z,100918.66
2018-07-24T17:34:27.379Z,100922.02
2018-07-24T17:36:56.090Z,100928.09
2018-07-24T17:39:24.778Z,100928.45
2018-07-24T17:41:53.539Z,100933.69
2018-07-24T17:44:22.600Z,100926.05
2018-07-24T17:46:51.348Z,100931.07
2018-07-24T17:49:20.387Z,100933.90
2018-07-24T17:51:49.384Z,100932.52
2018-07-24T17:54:18.147Z,100939.69
2018-07-24T17:56:47.192Z,100942.98
2018-07-24T17:59:15.916Z,100937.05
2018-07-24T18:01:45.863Z,100940.16
2018-07-24T18:04:15.165Z,100944.91
2018-07-24T18:06:43.926Z,100940.83
2018-07-24T18:09:13.759Z,100952.13
2018-07-24T18:11:42.765Z,100949.69
2018-07-24T18:14:11.769Z,100954.15
2018-07-24T18:16:40.723Z,100953.34
2018-07-24T18:19:09.606Z,100954.22
2018-07-24T18:21:38.392Z,100952.05
2018-07-24T18:24:07.231Z,100952.89
2018-07-24T18:26:36.042Z,100954.59
2018-07-24T18:29:05.093Z,100953.51
2018-07-24T18:31:33.902Z,100956.83
2018-07-24T18:34:02.845Z,100951.65
2018-07-24T18:36:33.556Z,100946.20
2018-07-24T18:39:02.530Z,100946.00
2018-07-24T18:41:34.201Z,100950.94
2018-07-24T18:44:03.097Z,100956.44
2018-07-24T18:46:32.029Z,100958.14
2018-07-24T18:49:00.919Z,100955.73
2018-07-24T18:51:29.902Z,100960.69
2018-07-24T18:53:58.831Z,100955.50
2018-07-24T18:56:27.807Z,100956.36
2018-07-24T18:58:56.772Z,100959.64
2018-07-24T19:01:26.544Z,100954.72
2018-07-24T19:03:55.402Z,100956.95
2018-07-24T19:06:24.283Z,100953.14
2018-07-24T19:08:53.915Z,100964.97
2018-07-24T19:11:23.132Z,100959.22
2018-07-24T19:13:52.177Z,100972.13
2018-07-24T19:16:21.033Z,100970.53
2018-07-24T19:18:49.982Z,100969.17
2018-07-24T19:21:19.190Z,100967.53
2018-07-24T19:23:48.191Z,100970.55
2018-07-24T19:26:16.980Z,100955.33
2018-07-24T19:28:45.928Z,100974.72
2018-07-24T19:31:14.792Z,100972.85
2018-07-24T19:33:44.000Z,100974.78
2018-07-24T19:36:12.785Z,100975.34
2018-07-24T19:38:41.722Z,100971.55
2018-07-24T19:41:10.421Z,100974.30
2018-07-24T19:43:39.483Z,100975.44
2018-07-24T19:46:08.282Z,100975.72
2018-07-24T19:48:37.324Z,100977.97
2018-07-24T19:51:08.057Z,100981.83
2018-07-24T19:53:38.330Z,100979.96
2018-07-24T19:56:07.239Z,100978.91
2018-07-24T19:58:36.661Z,100979.45
2018-07-24T20:01:05.593Z,100980.02
2018-07-24T20:03:34.411Z,100983.34
2018-07-24T20:06:03.145Z,100981.16
2018-07-24T20:08:32.865Z,100981.97
2018-07-24T20:11:01.762Z,100989.13
2018-07-24T20:13:30.680Z,100982.29
2018-07-24T20:15:59.357Z,100987.48
2018-07-24T20:18:28.111Z,100986.95
2018-07-24T20:20:57.289Z,100987.49
2018-07-24T20:23:26.133Z,100991.06
2018-07-24T20:25:54.991Z,100987.80
2018-07-24T20:28:23.919Z,101000.68
2018-07-24T20:30:53.112Z,100995.48
2018-07-24T20:33:21.813Z,100994.66
2018-07-24T20:35:50.849Z,100999.89
2018-07-24T20:38:20.423Z,100996.87
2018-07-24T20:40:49.189Z,100997.16
2018-07-24T20:43:18.308Z,100999.34
2018-07-24T20:45:47.132Z,100998.83
2018-07-24T20:48:15.925Z,101006.22
2018-07-24T20:50:44.910Z,101005.95
2018-07-24T20:53:14.346Z,101002.39
2018-07-24T20:55:43.001Z,101007.59
2018-07-24T20:58:12.225Z,101006.22
2018-07-24T21:00:40.835Z,101009.78
2018-07-24T21:03:10.171Z,100996.13
2018-07-24T21:05:39.115Z,101000.50
2018-07-24T21:08:07.951Z,101002.69
2018-07-24T21:10:36.758Z,101002.72
2018-07-24T21:13:06.056Z,101009.86
2018-07-24T21:15:34.867Z,101010.69
2018-07-24T21:18:04.250Z,101010.13
2018-07-24T21:20:33.375Z,101012.08
2018-07-24T21:23:02.159Z,101015.63
2018-07-24T21:25:31.107Z,101016.20
2018-07-24T21:27:59.919Z,101009.08
2018-07-24T21:30:28.763Z,101013.45
2018-07-24T21:32:59.365Z,101014.56
2018-07-24T21:35:28.253Z,101020.04
2018-07-24T21:37:57.041Z,101021.41
2018-07-24T21:40:25.967Z,101025.51
2018-07-24T21:42:55.158Z,101021.14
2018-07-24T21:45:24.100Z,101025.27
2018-07-24T21:47:52.913Z,101023.88
2018-07-24T21:50:23.520Z,101022.52
2018-07-24T21:52:53.225Z,101024.97
2018-07-24T21:55:21.942Z,101025.48
2018-07-24T21:57:50.772Z,101028.77
2018-07-24T22:00:19.655Z,101029.05
2018-07-24T22:02:48.383Z,101028.52
2018-07-24T22:05:17.157Z,101017.56
2018-07-24T22:07:45.840Z,101027.43
2018-07-24T22:10:20.234Z,101027.15
2018-07-24T22:12:48.925Z,101020.30
2018-07-24T22:15:26.020Z,101022.78
2018-07-24T22:17:54.955Z,101024.44
2018-07-24T22:20:24.194Z,101024.42
2018-07-24T22:22:53.793Z,101027.42
2018-07-24T22:25:24.461Z,101017.30
2018-07-24T22:27:53.610Z,101020.61
2018-07-24T22:30:24.514Z,101020.05
2018-07-24T22:32:53.408Z,101028.78
2018-07-24T22:35:22.367Z,101026.06
2018-07-24T22:37:51.361Z,101027.13
2018-07-24T22:40:20.834Z,101029.33
2018-07-24T22:42:49.976Z,101030.69
2018-07-24T22:45:19.230Z,101032.88
2018-07-24T22:47:48.208Z,101037.53
2018-07-24T22:50:17.262Z,101027.41
2018-07-24T22:52:52.418Z,101029.61
2018-07-24T22:55:22.349Z,101032.60
2018-07-24T22:57:51.058Z,101034.27
2018-07-24T23:00:20.830Z,101033.98
2018-07-24T23:02:49.617Z,101035.08
2018-07-24T23:05:19.409Z,101032.60
2018-07-24T23:07:48.327Z,101033.42
2018-07-24T23:10:16.999Z,101032.88
2018-07-24T23:12:45.709Z,101030.69
2018-07-24T23:15:14.770Z,101032.34
2018-07-24T23:17:43.762Z,101032.88
2018-07-24T23:20:12.752Z,101028.23
2018-07-24T23:22:41.437Z,101027.69
2018-07-24T23:25:10.494Z,101030.67
2018-07-24T23:27:39.224Z,101035.02
2018-07-24T23:30:07.932Z,101037.17
2018-07-24T23:32:36.893Z,101037.44
2018-07-24T23:35:06.343Z,101038.00
2018-07-24T23:37:35.506Z,101035.80
2018-07-24T23:40:04.215Z,101036.34
2018-07-24T23:42:32.960Z,101027.07
2018-07-24T23:45:01.628Z,101033.90
2018-07-24T23:47:30.649Z,101033.34
2018-07-24T23:49:59.625Z,101037.16
2018-07-24T23:52:28.326Z,101029.48
2018-07-24T23:54:56.998Z,101028.41
2018-07-24T23:57:25.632Z,101030.58
2018-07-24T23:59:54.378Z,101026.77
